Waynesfield, OH (45896)

9:04 PM EDT on July 29, 2016 (GMT -0400)
Lima Allen County | | Change Station

Elev 974 ft 40.71 °N, 84.03 °W | Updated 11 minutes ago

Overcast
Overcast
73 °F
Feels Like 73 °F
N
5
Wind Variable Wind from East

Today
High -- | Low -- °F
--% Chance of Precip.
Yesterday
High -- | Low -- °F
Precip. -- in
Pressure 29.92 in
Visibility 10.0 miles
Clouds Few 5000 ft
Scattered Clouds 9000 ft
Overcast 11000 ft
Dew Point 68 °F
Humidity 84%
Rainfall 0.11 in
Snow Depth Not available.
6:30 AM 8:53 PM
Waning Crescent, 17% visible
METAR KAOH 300053Z AUTO 10004KT 10SM FEW050 SCT090 OVC110 23/20 A2994 RMK AO2 RAB29E41 SLP132 P0000 T02280200
Pressure 29.92 in
Visibility 10.0 miles
Clouds Few 5000 ft
Scattered Clouds 9000 ft
Overcast 11000 ft
Dew Point 68 °F
Humidity 84%
Rainfall 0.11 in
Snow Depth Not available.
6:30 AM 8:53 PM
Waning Crescent, 17% visible
METAR KAOH 300053Z AUTO 10004KT 10SM FEW050 SCT090 OVC110 23/20 A2994 RMK AO2 RAB29E41 SLP132 P0000 T02280200

10-Day Weather Forecast

Almanac

Astronomy

Jul. 29, 2016 Rise Set
Actual Time
Civil Twilight
Nautical Twilight
Astronomical Twilight
Moon
Length of Visible Light
Length of Day
Tomorrow will be .
, % of the Moon is Illuminated

Today's Extremes

State Highs State Lows

Community

WunderPhotos

Upload Photos

1,928,463 photos uploaded!

WunderBlog® & News

Nearby

Air Quality

  Air Quality AQ Index Pollutant
Not available.

Snow Depth

Station Depth Elevation

Earthquake Activity

City Distance Mag. Time & Date
Minimum magnitude displayed is 2.5.

Coastal Water Temperatures

Place Temperature

Stations

Nearby Weather Stations

Station Location Temp. Windchill Dew Point Humidity Wind Precip. Elev Updated Type
                   

Watches & Warnings

There are currently no watches in effect.